createdAt,value
2023-10-23T00:01:34.644Z,82.68
2023-10-23T00:04:01.870Z,83.10
2023-10-23T00:06:28.954Z,83.61
2023-10-23T00:08:55.774Z,84.49
2023-10-23T00:11:24.863Z,85.48
2023-10-23T00:13:51.955Z,86.34
2023-10-23T00:16:19.838Z,87.46
2023-10-23T00:18:47.307Z,88.43
2023-10-23T00:21:14.511Z,89.29
2023-10-23T00:23:41.424Z,89.61
2023-10-23T00:26:10.434Z,89.36
2023-10-23T00:28:37.711Z,89.01
2023-10-23T00:31:04.573Z,88.73
2023-10-23T00:33:31.617Z,88.27
2023-10-23T00:35:58.716Z,87.69
2023-10-23T00:38:25.616Z,87.49
2023-10-23T00:40:52.472Z,86.73
2023-10-23T00:43:21.953Z,86.26
2023-10-23T00:45:52.525Z,85.92
2023-10-23T00:48:21.685Z,86.11
2023-10-23T00:50:50.165Z,86.21
2023-10-23T00:53:19.709Z,85.90
2023-10-23T00:55:48.012Z,86.26
2023-10-23T00:58:16.207Z,86.85
2023-10-23T01:00:45.578Z,86.94
2023-10-23T01:03:13.461Z,87.59
2023-10-23T01:05:40.929Z,87.74
2023-10-23T01:08:08.122Z,87.88
2023-10-23T01:10:35.354Z,88.32
2023-10-23T01:13:08.176Z,88.10
2023-10-23T01:15:36.134Z,87.87
2023-10-23T01:18:04.281Z,88.07
2023-10-23T01:20:32.211Z,87.83
2023-10-23T01:23:00.910Z,87.64
2023-10-23T01:25:29.357Z,87.74
2023-10-23T01:27:56.725Z,87.37
2023-10-23T01:30:23.625Z,86.66
2023-10-23T01:32:50.645Z,86.59
2023-10-23T01:35:17.817Z,86.00
2023-10-23T01:37:46.341Z,84.95
2023-10-23T01:40:13.593Z,83.96
2023-10-23T01:42:41.746Z,83.41
2023-10-23T01:45:09.685Z,83.26
2023-10-23T01:47:36.977Z,82.70
2023-10-23T01:50:04.145Z,82.21
2023-10-23T01:52:30.997Z,82.01
2023-10-23T01:54:59.941Z,81.69
2023-10-23T01:57:28.633Z,81.71
2023-10-23T01:59:56.999Z,82.28
2023-10-23T02:02:24.117Z,82.10
2023-10-23T02:04:50.934Z,81.52
2023-10-23T02:07:17.792Z,81.22
2023-10-23T02:09:45.629Z,81.10
2023-10-23T02:12:12.986Z,81.22
2023-10-23T02:14:40.071Z,81.05
2023-10-23T02:17:07.300Z,81.17
2023-10-23T02:19:36.228Z,81.16
2023-10-23T02:22:03.271Z,81.41
2023-10-23T02:24:30.214Z,81.48
2023-10-23T02:26:57.768Z,81.45
2023-10-23T02:29:24.712Z,81.49
2023-10-23T02:31:51.662Z,81.50
2023-10-23T02:34:18.819Z,81.46
2023-10-23T02:36:45.798Z,81.66
2023-10-23T02:39:12.934Z,81.76
2023-10-23T02:41:39.853Z,81.64
2023-10-23T02:44:06.833Z,81.25
2023-10-23T02:46:39.902Z,81.19
2023-10-23T02:49:06.974Z,80.94
2023-10-23T02:51:33.965Z,80.93
2023-10-23T02:54:01.040Z,81.33
2023-10-23T02:56:27.890Z,81.86
2023-10-23T02:58:54.949Z,82.12
2023-10-23T03:01:25.136Z,82.37
2023-10-23T03:03:53.133Z,82.32
2023-10-23T03:06:20.238Z,82.24
2023-10-23T03:08:47.200Z,81.97
2023-10-23T03:11:20.726Z,81.91
2023-10-23T03:14:10.645Z,81.76
2023-10-23T03:16:38.607Z,81.85
2023-10-23T03:19:05.713Z,82.23
2023-10-23T03:21:32.662Z,82.12
2023-10-23T03:23:59.666Z,82.13
2023-10-23T03:26:26.739Z,81.90
2023-10-23T03:28:53.706Z,81.92
2023-10-23T03:31:20.642Z,81.87
2023-10-23T03:33:47.527Z,81.80
2023-10-23T03:36:14.445Z,81.99
2023-10-23T03:38:41.472Z,82.39
2023-10-23T03:41:08.328Z,82.26
2023-10-23T03:43:35.276Z,81.78
2023-10-23T03:46:04.296Z,82.00
2023-10-23T03:48:31.553Z,81.94
2023-10-23T03:51:01.912Z,81.99
2023-10-23T03:53:29.168Z,81.98
2023-10-23T03:55:56.216Z,81.79
2023-10-23T03:58:23.078Z,81.97
2023-10-23T04:00:54.297Z,81.85
2023-10-23T04:03:21.533Z,81.74
2023-10-23T04:05:48.603Z,81.92
2023-10-23T04:08:15.509Z,82.05
2023-10-23T04:10:46.753Z,81.90
2023-10-23T04:13:14.789Z,81.67
2023-10-23T04:15:42.300Z,81.75
2023-10-23T04:18:09.227Z,82.17
2023-10-23T04:20:36.067Z,82.20
2023-10-23T04:23:03.145Z,82.17
2023-10-23T04:25:30.076Z,82.25
2023-10-23T04:27:57.052Z,82.29
2023-10-23T04:30:23.945Z,81.94
2023-10-23T04:32:50.871Z,82.25
2023-10-23T04:35:17.738Z,82.09
2023-10-23T04:37:44.789Z,82.09
2023-10-23T04:40:12.232Z,81.97
2023-10-23T04:42:39.161Z,81.99
2023-10-23T04:45:06.791Z,82.53
2023-10-23T04:47:33.637Z,82.70
2023-10-23T04:50:00.474Z,83.24
2023-10-23T04:52:27.281Z,83.79
2023-10-23T04:54:54.607Z,84.48
2023-10-23T04:57:21.487Z,84.65
2023-10-23T04:59:48.447Z,84.56
2023-10-23T05:02:15.307Z,84.49
2023-10-23T05:04:42.185Z,84.12
2023-10-23T05:07:09.241Z,84.53
2023-10-23T05:09:36.114Z,84.27
2023-10-23T05:12:02.985Z,84.05
2023-10-23T05:14:29.856Z,83.88
2023-10-23T05:16:56.730Z,83.61
2023-10-23T05:19:23.625Z,83.70
2023-10-23T05:21:50.526Z,83.69
2023-10-23T05:24:17.479Z,85.53
2023-10-23T05:26:44.533Z,86.45
2023-10-23T05:29:11.354Z,87.57
2023-10-23T05:31:38.181Z,88.81
2023-10-23T05:34:08.134Z,88.43
2023-10-23T05:36:35.146Z,87.81
2023-10-23T05:39:02.038Z,87.17
2023-10-23T05:41:28.908Z,86.64
2023-10-23T05:43:55.792Z,85.99
2023-10-23T05:46:24.053Z,85.06
2023-10-23T05:48:50.971Z,84.31
2023-10-23T05:51:17.872Z,83.73
2023-10-23T05:53:44.785Z,83.33
2023-10-23T05:56:11.630Z,82.88
2023-10-23T05:58:38.553Z,82.88
2023-10-23T06:01:07.074Z,82.69
2023-10-23T06:03:35.352Z,82.61
2023-10-23T06:06:02.729Z,82.49
2023-10-23T06:08:29.580Z,82.47
2023-10-23T06:10:56.502Z,82.55
2023-10-23T06:13:23.553Z,82.63
2023-10-23T06:15:50.669Z,82.67
2023-10-23T06:18:17.618Z,82.73
2023-10-23T06:20:45.891Z,82.85
2023-10-23T06:23:12.765Z,83.05
2023-10-23T06:25:41.021Z,83.23
2023-10-23T06:28:08.217Z,83.47
2023-10-23T06:30:37.558Z,83.69
2023-10-23T06:33:04.707Z,83.95
2023-10-23T06:35:31.635Z,84.17
2023-10-23T06:37:58.586Z,84.68
2023-10-23T06:40:25.533Z,85.58
2023-10-23T06:42:52.401Z,86.67
2023-10-23T06:45:19.362Z,87.42
2023-10-23T06:47:50.632Z,87.29
2023-10-23T06:50:18.657Z,87.15
2023-10-23T06:52:46.113Z,86.79
2023-10-23T06:55:13.814Z,86.40
2023-10-23T06:57:40.727Z,86.02
2023-10-23T07:00:08.240Z,85.57
2023-10-23T07:02:35.222Z,85.31
2023-10-23T07:05:02.821Z,84.85
2023-10-23T07:07:30.701Z,84.71
2023-10-23T07:10:02.051Z,84.48
2023-10-23T07:12:28.980Z,84.26
2023-10-23T07:14:55.965Z,84.21
2023-10-23T07:17:22.966Z,84.18
2023-10-23T07:19:50.129Z,83.94
2023-10-23T07:22:17.515Z,83.65
2023-10-23T07:24:44.422Z,83.84
2023-10-23T07:27:16.406Z,84.30
2023-10-23T07:29:45.139Z,84.67
2023-10-23T07:32:12.384Z,84.25
2023-10-23T07:34:39.199Z,82.98
2023-10-23T07:37:06.288Z,81.96
2023-10-23T07:39:35.596Z,80.54
2023-10-23T07:42:03.188Z,79.76
2023-10-23T07:44:30.104Z,78.89
2023-10-23T07:46:57.157Z,78.19
2023-10-23T07:49:24.740Z,77.84
2023-10-23T07:51:54.011Z,77.17
2023-10-23T07:54:21.738Z,77.10
2023-10-23T07:56:48.758Z,76.94
2023-10-23T07:59:15.688Z,76.83
2023-10-23T08:01:42.788Z,77.26
2023-10-23T08:04:10.152Z,76.99
2023-10-23T08:06:37.334Z,76.75
2023-10-23T08:09:05.121Z,76.91
2023-10-23T08:11:31.998Z,76.54
2023-10-23T08:13:59.748Z,76.78
2023-10-23T08:16:26.918Z,76.29
2023-10-23T08:18:54.056Z,75.75
2023-10-23T08:21:22.995Z,74.91
2023-10-23T08:23:58.097Z,74.70
2023-10-23T08:26:25.039Z,75.02
2023-10-23T08:29:01.744Z,74.51
2023-10-23T08:31:39.419Z,73.21
2023-10-23T08:34:08.979Z,73.20
2023-10-23T08:36:36.452Z,71.98
2023-10-23T08:39:04.557Z,70.35
2023-10-23T08:41:32.761Z,70.55
2023-10-23T08:44:00.148Z,69.60
2023-10-23T08:46:31.089Z,68.76
2023-10-23T08:48:58.538Z,68.36
2023-10-23T08:51:26.554Z,67.60
2023-10-23T08:54:11.138Z,68.15
2023-10-23T08:56:42.216Z,66.18
2023-10-23T08:59:11.587Z,66.57
2023-10-23T09:01:39.313Z,66.19
2023-10-23T09:04:08.143Z,66.34
2023-10-23T09:06:37.328Z,66.44
2023-10-23T09:09:06.688Z,66.52
2023-10-23T09:11:45.651Z,65.63
2023-10-23T09:14:25.017Z,66.39
2023-10-23T09:16:53.659Z,66.53
2023-10-23T09:19:40.215Z,65.65
2023-10-23T09:22:09.310Z,64.31
2023-10-23T09:24:37.179Z,65.07
2023-10-23T09:27:04.661Z,64.72
2023-10-23T09:29:32.105Z,64.46
2023-10-23T09:32:01.016Z,63.00
2023-10-23T09:34:30.329Z,63.14
2023-10-23T09:36:57.515Z,63.11
2023-10-23T09:39:24.870Z,62.90
2023-10-23T09:41:52.582Z,62.35
2023-10-23T09:44:19.501Z,62.49
2023-10-23T09:46:49.424Z,62.45
2023-10-23T09:49:17.947Z,60.33
2023-10-23T09:51:50.110Z,60.51
2023-10-23T09:54:21.102Z,59.38
2023-10-23T09:56:55.771Z,59.95
2023-10-23T09:59:41.986Z,59.27
2023-10-23T10:02:11.068Z,59.46
2023-10-23T10:04:52.718Z,58.66
2023-10-23T10:07:27.525Z,58.14
2023-10-23T10:09:55.879Z,57.66
2023-10-23T10:12:26.022Z,56.81
2023-10-23T10:14:55.196Z,56.28
2023-10-23T10:17:22.380Z,56.98
2023-10-23T10:19:50.948Z,56.88
2023-10-23T10:22:26.139Z,56.76
2023-10-23T10:24:53.828Z,57.79
2023-10-23T10:27:21.787Z,56.22
2023-10-23T10:29:48.804Z,55.49
2023-10-23T10:32:16.000Z,55.42
2023-10-23T10:34:55.906Z,54.42
2023-10-23T10:37:29.163Z,54.17
2023-10-23T10:39:56.239Z,53.66
2023-10-23T10:42:26.914Z,53.51
2023-10-23T10:44:55.179Z,53.51
2023-10-23T10:47:35.384Z,53.12
2023-10-23T10:50:02.270Z,53.21
2023-10-23T10:52:31.383Z,53.75
2023-10-23T10:55:01.935Z,54.07
2023-10-23T10:57:29.145Z,53.90
2023-10-23T10:59:57.212Z,53.11
2023-10-23T11:02:24.542Z,51.87
2023-10-23T11:04:51.862Z,52.53
2023-10-23T11:07:24.317Z,52.98
2023-10-23T11:09:51.789Z,52.88
2023-10-23T11:12:20.340Z,53.31
2023-10-23T11:14:48.515Z,52.35
2023-10-23T11:17:16.085Z,51.96
2023-10-23T11:19:44.530Z,51.89
2023-10-23T11:22:23.129Z,52.58
2023-10-23T11:24:50.366Z,52.03
2023-10-23T11:27:17.349Z,50.97
2023-10-23T11:29:47.045Z,49.75
2023-10-23T11:32:15.767Z,50.15
2023-10-23T11:34:43.805Z,51.10
2023-10-23T11:37:12.523Z,50.60
2023-10-23T11:39:43.584Z,51.47
2023-10-23T11:42:12.056Z,50.99
2023-10-23T11:44:41.644Z,49.83
2023-10-23T11:47:09.335Z,49.13
2023-10-23T11:49:36.550Z,49.78
2023-10-23T11:52:03.961Z,48.43
2023-10-23T11:54:31.268Z,48.83
2023-10-23T11:57:00.393Z,48.64
2023-10-23T11:59:27.868Z,49.15
2023-10-23T12:01:57.898Z,50.17
2023-10-23T12:04:25.221Z,48.56
2023-10-23T12:06:52.478Z,48.77
2023-10-23T12:09:19.669Z,48.06
2023-10-23T12:11:46.631Z,48.13
2023-10-23T12:14:13.618Z,47.84
2023-10-23T12:16:40.850Z,46.08
2023-10-23T12:19:10.920Z,43.73
2023-10-23T12:21:38.565Z,43.88
2023-10-23T12:24:07.878Z,43.46
2023-10-23T12:26:35.454Z,43.71
2023-10-23T12:29:06.661Z,41.81
2023-10-23T12:32:01.733Z,41.95
2023-10-23T12:34:21.228Z,40.68
2023-10-23T12:36:48.257Z,41.59
2023-10-23T12:39:15.294Z,42.31
2023-10-23T12:41:42.146Z,41.55
2023-10-23T12:44:08.950Z,40.91
2023-10-23T12:46:35.915Z,40.36
2023-10-23T12:49:03.246Z,39.39
2023-10-23T12:51:30.224Z,38.49
2023-10-23T12:53:57.152Z,38.04
2023-10-23T12:56:24.065Z,37.94
2023-10-23T12:58:50.908Z,37.74
2023-10-23T13:01:18.386Z,37.82
2023-10-23T13:03:45.296Z,37.01
2023-10-23T13:06:12.417Z,37.37
2023-10-23T13:08:39.326Z,37.01
2023-10-23T13:11:06.157Z,37.98
2023-10-23T13:13:33.038Z,38.24
2023-10-23T13:16:00.019Z,36.21
2023-10-23T13:18:26.924Z,35.13
2023-10-23T13:21:30.768Z,36.19
2023-10-23T13:23:42.234Z,35.72
2023-10-23T13:26:13.870Z,34.20
2023-10-23T13:28:41.555Z,33.54
2023-10-23T13:31:09.162Z,34.07
2023-10-23T13:33:36.244Z,34.67
2023-10-23T13:36:03.529Z,35.61
2023-10-23T13:38:31.033Z,35.86
2023-10-23T13:40:58.027Z,36.65
2023-10-23T13:43:26.577Z,35.01
2023-10-23T13:45:53.737Z,34.65
2023-10-23T13:48:20.751Z,35.26
2023-10-23T13:50:51.260Z,36.26
2023-10-23T13:53:19.148Z,36.22
2023-10-23T13:55:46.758Z,35.33
2023-10-23T13:58:13.804Z,35.25
2023-10-23T14:00:41.248Z,35.01
2023-10-23T14:03:10.092Z,35.24
2023-10-23T14:05:38.608Z,35.45
2023-10-23T14:08:05.764Z,34.91
2023-10-23T14:10:33.344Z,35.96
2023-10-23T14:13:00.344Z,36.36
2023-10-23T14:15:28.032Z,36.95
2023-10-23T14:17:55.102Z,36.64
2023-10-23T14:20:22.306Z,36.83
2023-10-23T14:22:49.206Z,37.32
2023-10-23T14:25:16.233Z,38.28
2023-10-23T14:27:43.235Z,38.86
2023-10-23T14:30:10.431Z,39.83
2023-10-23T14:32:37.901Z,41.18
2023-10-23T14:35:05.211Z,42.81
2023-10-23T14:37:32.554Z,43.68
2023-10-23T14:39:59.725Z,44.79
2023-10-23T14:42:27.130Z,44.62
2023-10-23T14:44:54.112Z,45.36
2023-10-23T14:47:21.045Z,46.22
2023-10-23T14:49:47.957Z,46.83
2023-10-23T14:52:14.948Z,47.63
2023-10-23T14:54:42.838Z,48.94
2023-10-23T14:57:09.892Z,48.95
2023-10-23T14:59:36.805Z,49.50
2023-10-23T15:02:03.872Z,50.80
2023-10-23T15:04:32.674Z,51.69
2023-10-23T15:07:00.868Z,53.00
2023-10-23T15:09:27.810Z,54.36
2023-10-23T15:11:54.654Z,55.71
2023-10-23T15:14:21.557Z,56.66
2023-10-23T15:16:48.536Z,57.30
2023-10-23T15:19:15.791Z,58.00
2023-10-23T15:21:42.913Z,58.75
2023-10-23T15:24:11.707Z,59.48
2023-10-23T15:26:39.157Z,60.20
2023-10-23T15:29:06.088Z,60.76
2023-10-23T15:31:33.140Z,62.13
2023-10-23T15:34:00.204Z,62.75
2023-10-23T15:36:27.111Z,63.81
2023-10-23T15:38:54.134Z,64.75
2023-10-23T15:41:21.013Z,64.97
2023-10-23T15:43:57.187Z,64.90
2023-10-23T15:46:24.285Z,65.16
2023-10-23T15:48:52.322Z,65.65
2023-10-23T15:51:19.218Z,65.86
2023-10-23T15:53:46.088Z,66.46
2023-10-23T15:56:12.955Z,67.24
2023-10-23T15:58:39.926Z,67.61
2023-10-23T16:01:08.257Z,67.58
2023-10-23T16:03:36.954Z,67.63
2023-10-23T16:06:07.653Z,68.05
2023-10-23T16:08:36.649Z,68.45
2023-10-23T16:11:04.345Z,68.77
2023-10-23T16:13:38.380Z,69.18
2023-10-23T16:16:14.376Z,69.48
2023-10-23T16:18:44.522Z,69.98
2023-10-23T16:21:14.264Z,70.42
2023-10-23T16:23:41.479Z,70.43
2023-10-23T16:26:08.552Z,70.46
2023-10-23T16:28:36.284Z,70.48
2023-10-23T16:31:03.367Z,71.08
2023-10-23T16:33:30.371Z,71.61
2023-10-23T16:35:57.239Z,72.30
2023-10-23T16:38:24.069Z,73.22
2023-10-23T16:40:51.181Z,74.10
2023-10-23T16:43:19.199Z,74.60
2023-10-23T16:45:46.345Z,74.33
2023-10-23T16:48:13.214Z,74.74
2023-10-23T16:50:40.072Z,74.64
2023-10-23T16:53:06.982Z,74.41
2023-10-23T16:55:33.986Z,73.96
2023-10-23T16:58:01.009Z,73.26
2023-10-23T17:00:28.496Z,73.22
2023-10-23T17:02:55.978Z,74.48
2023-10-23T17:05:23.054Z,75.53
2023-10-23T17:07:49.881Z,76.51
2023-10-23T17:10:18.244Z,77.32
2023-10-23T17:12:45.196Z,77.55
2023-10-23T17:15:12.090Z,77.81
2023-10-23T17:17:39.322Z,77.50
2023-10-23T17:20:07.482Z,76.98
2023-10-23T17:22:36.571Z,76.74
2023-10-23T17:25:03.934Z,76.13
2023-10-23T17:27:30.836Z,76.06
2023-10-23T17:29:57.784Z,76.24
2023-10-23T17:32:24.663Z,76.55
2023-10-23T17:34:51.541Z,76.53
2023-10-23T17:37:18.446Z,76.57
2023-10-23T17:39:45.532Z,76.84
2023-10-23T17:42:12.403Z,76.76
2023-10-23T17:44:39.245Z,76.49
2023-10-23T17:47:06.376Z,76.64
2023-10-23T17:49:33.362Z,77.02
2023-10-23T17:52:00.356Z,77.75
2023-10-23T17:54:27.212Z,78.51
2023-10-23T17:56:54.064Z,79.27
2023-10-23T17:59:21.139Z,79.48
2023-10-23T18:01:48.194Z,79.80
2023-10-23T18:04:15.093Z,79.60
2023-10-23T18:06:41.996Z,79.34
2023-10-23T18:09:10.627Z,79.12
2023-10-23T18:11:39.635Z,79.72
2023-10-23T18:14:08.966Z,80.11
2023-10-23T18:16:37.103Z,80.13
2023-10-23T18:19:04.870Z,79.86
2023-10-23T18:21:31.817Z,79.33
2023-10-23T18:23:58.743Z,78.69
2023-10-23T18:26:26.087Z,78.15
2023-10-23T18:28:53.375Z,77.95
2023-10-23T18:31:21.131Z,77.76
2023-10-23T18:33:48.096Z,77.97
2023-10-23T18:36:17.356Z,78.52
2023-10-23T18:38:46.189Z,79.28
2023-10-23T18:41:17.674Z,79.50
2023-10-23T18:43:46.795Z,78.98
2023-10-23T18:46:14.647Z,78.93
2023-10-23T18:48:42.219Z,78.95
2023-10-23T18:51:12.883Z,79.31
2023-10-23T18:53:42.228Z,79.43
2023-10-23T18:56:09.229Z,79.29
2023-10-23T18:58:36.615Z,78.77
2023-10-23T19:01:03.848Z,78.30
2023-10-23T19:03:31.715Z,78.24
2023-10-23T19:05:58.883Z,78.53
2023-10-23T19:08:29.386Z,79.02
2023-10-23T19:10:56.523Z,79.02
2023-10-23T19:13:23.537Z,79.23
2023-10-23T19:15:59.560Z,79.06
2023-10-23T19:18:30.320Z,78.86
2023-10-23T19:21:00.706Z,78.32
2023-10-23T19:23:27.840Z,78.61
2023-10-23T19:25:54.820Z,78.52
2023-10-23T19:28:22.937Z,78.04
2023-10-23T19:30:50.008Z,77.93
2023-10-23T19:33:17.331Z,77.81
2023-10-23T19:35:45.044Z,77.81
2023-10-23T19:38:13.490Z,77.77
2023-10-23T19:40:42.569Z,78.12
2023-10-23T19:43:15.793Z,77.97
2023-10-23T19:45:44.885Z,78.42
2023-10-23T19:48:13.478Z,77.86
2023-10-23T19:50:46.067Z,77.68
2023-10-23T19:53:16.785Z,78.07
2023-10-23T19:55:46.723Z,77.82
2023-10-23T19:58:15.610Z,77.71
2023-10-23T20:00:42.554Z,77.63
2023-10-23T20:03:09.496Z,77.60
2023-10-23T20:05:36.402Z,77.22
2023-10-23T20:08:03.311Z,77.41
2023-10-23T20:10:30.522Z,77.81
2023-10-23T20:13:00.185Z,77.73
2023-10-23T20:15:30.500Z,77.46
2023-10-23T20:17:57.560Z,77.62
2023-10-23T20:20:26.804Z,78.13
2023-10-23T20:22:54.004Z,78.06
2023-10-23T20:25:21.028Z,78.07
2023-10-23T20:27:48.172Z,77.80
2023-10-23T20:30:15.200Z,78.19
2023-10-23T20:32:42.237Z,78.49
2023-10-23T20:35:09.645Z,78.38
2023-10-23T20:37:36.990Z,78.93
2023-10-23T20:40:05.136Z,79.16
2023-10-23T20:42:37.216Z,79.45
2023-10-23T20:45:06.483Z,80.26
2023-10-23T20:47:34.739Z,81.07
2023-10-23T20:50:02.662Z,81.25
2023-10-23T20:52:31.224Z,81.06
2023-10-23T20:54:58.394Z,80.32
2023-10-23T20:57:25.604Z,80.43
2023-10-23T20:59:52.828Z,80.49
2023-10-23T21:02:19.735Z,79.93
2023-10-23T21:04:46.649Z,79.89
2023-10-23T21:07:13.880Z,79.57
2023-10-23T21:09:41.299Z,79.06
2023-10-23T21:12:08.439Z,78.70
2023-10-23T21:14:46.743Z,78.73
2023-10-23T21:17:15.204Z,78.32
2023-10-23T21:19:42.451Z,78.12
2023-10-23T21:22:09.626Z,78.05
2023-10-23T21:24:36.489Z,78.16
2023-10-23T21:27:05.039Z,78.91
2023-10-23T21:29:32.133Z,79.54
2023-10-23T21:32:00.934Z,79.89
2023-10-23T21:34:28.001Z,79.81
2023-10-23T21:36:55.253Z,79.84
2023-10-23T21:39:22.117Z,79.71
2023-10-23T21:41:48.980Z,79.88
2023-10-23T21:44:16.032Z,79.83
2023-10-23T21:46:43.073Z,79.90
2023-10-23T21:49:11.654Z,79.91
2023-10-23T21:51:39.367Z,80.09
2023-10-23T21:54:07.131Z,79.67
2023-10-23T21:57:18.857Z,79.52
2023-10-23T21:59:22.815Z,79.83
2023-10-23T22:01:53.440Z,80.14
2023-10-23T22:04:21.263Z,80.17
2023-10-23T22:06:48.517Z,80.63
2023-10-23T22:09:16.615Z,80.50
2023-10-23T22:11:44.516Z,80.74
2023-10-23T22:14:11.887Z,81.07
2023-10-23T22:16:39.983Z,80.91
2023-10-23T22:19:07.064Z,80.92
2023-10-23T22:21:34.755Z,80.73
2023-10-23T22:24:01.625Z,81.11
2023-10-23T22:26:32.851Z,81.15
2023-10-23T22:29:00.622Z,80.89
2023-10-23T22:31:27.810Z,81.17
2023-10-23T22:33:55.204Z,81.52
2023-10-23T22:36:22.260Z,81.31
2023-10-23T22:38:49.619Z,81.40
2023-10-23T22:41:17.203Z,80.62
2023-10-23T22:43:44.143Z,80.20
2023-10-23T22:46:11.186Z,80.12
2023-10-23T22:48:38.140Z,80.59
2023-10-23T22:51:05.383Z,80.50
2023-10-23T22:53:34.102Z,80.56
2023-10-23T22:56:03.273Z,79.94
2023-10-23T22:58:32.404Z,80.03
2023-10-23T23:01:00.510Z,79.59
2023-10-23T23:03:28.029Z,79.14
2023-10-23T23:05:58.413Z,79.48
2023-10-23T23:08:27.299Z,79.67
2023-10-23T23:10:54.326Z,79.47
2023-10-23T23:13:21.434Z,79.48
2023-10-23T23:15:49.329Z,79.14
2023-10-23T23:18:20.166Z,78.39
2023-10-23T23:20:48.640Z,78.69
2023-10-23T23:23:15.475Z,78.98
2023-10-23T23:25:42.369Z,79.41
2023-10-23T23:28:09.298Z,79.33
2023-10-23T23:30:36.269Z,79.46
2023-10-23T23:33:03.319Z,79.20
2023-10-23T23:35:30.148Z,79.04
2023-10-23T23:37:57.004Z,79.43
2023-10-23T23:40:23.939Z,79.39
2023-10-23T23:42:50.848Z,79.24
2023-10-23T23:45:17.819Z,79.39
2023-10-23T23:47:44.814Z,79.55
2023-10-23T23:50:11.821Z,79.41
2023-10-23T23:52:38.693Z,79.56
2023-10-23T23:55:06.569Z,78.98
2023-10-23T23:57:35.151Z,78.91
